Eikamaru No.2 — JD3056 — position and weather

sailwx.info

Track history (hours):
 
Tides and Currents Weather Stations Pressure Air Temp Water Temp Dewpoint Dewpoint Depression Visibility Wind Speed Wind Dir Waves Ship Positions

Eikamaru No.2

Last reported at 2016-May-27 17:33 UTC. Time now 2016-May-27 18:04 UTC.
Position N 35°29' E 139°55'.

Length 60 m; draft 3.3 m.

Type: Tanker. MMSI: 431001342.

Date/timePositionNaut miles runAvg speedWind from/ knotsBaromVisibWave heightAir tempDewpointWater temp
2016-May-27 17:33N 35°29' E 139°55'8 7.6
2016-May-27 16:33N 35°25' E 139°47'9 9.2
2016-May-27 15:33N 35°16' E 139°47'1110.5
2016-May-27 14:32N 35°05' E 139°44'62 9.7
2016-May-27 08:08N 34°34' E 138°38'  
2016-May-21 09:33N 35°12' E 139°46'1211.8
2016-May-21 08:33N 35°24' E 139°43'1111.2
2016-May-21 07:33N 35°29' E 139°55'1 0.8
2016-May-21 06:34N 35°29' E 139°56'2 2.3
2016-May-21 05:33N 35°27' E 139°58'1 0.6
2016-May-21 04:33N 35°27' E 139°58'0 0.0
2016-May-21 03:33N 35°27' E 139°58'0 0.0
2016-May-21 02:33N 35°27' E 139°58'0 0.4
2016-May-21 01:32N 35°27' E 139°58'8 8.3
2016-May-21 00:33N 35°26' E 139°48'9 9.1
2016-May-20 23:33N 35°17' E 139°46'9 9.3
2016-May-20 22:33N 35°08' E 139°45'6510.1
2016-May-20 16:07N 34°33' E 138°38'190 8.4
2016-May-19 17:33N 34°02' E 134°51'35 1.1
2016-May-18 09:16N 34°37' E 134°57'913.2
2016-May-18 08:33N 34°35' E 135°09'1212.0
2016-May-18 07:32N 34°33' E 135°23'2 2.0
2016-May-18 06:33N 34°32' E 135°25'0 0.0
2016-May-18 05:33N 34°32' E 135°25'0 0.0
2016-May-18 04:33N 34°32' E 135°25'0 0.0
2016-May-18 03:33N 34°32' E 135°25'0 0.0
2016-May-18 02:33N 34°32' E 135°25'1 0.5
2016-May-18 01:25N 34°33' E 135°25'6 6.9
2016-May-18 00:33N 34°32' E 135°18'1111.0
2016-May-17 23:33N 34°24' E 135°08'1110.7
2016-May-17 22:34N 34°15' E 135°03'1211.1
2016-May-17 21:28N 34°03' E 135°02'  
Track history (hours):
 
Tides and Currents Weather Stations Pressure Air Temp Water Temp Dewpoint Dewpoint Depression Visibility Wind Speed Wind Dir Waves Ship Positions

Eikamaru No.2

Last reported at 2016-May-27 17:33 UTC. Time now 2016-May-27 18:04 UTC.
Position N 35°29' E 139°55'.

Length 60 m; draft 3.3 m.

Type: Tanker. MMSI: 431001342.

Date/timePositionNaut miles runAvg speedWind from/ knotsBaromVisibWave heightAir tempDewpointWater temp
2016-May-27 17:33N 35°29' E 139°55'8 7.6
2016-May-27 16:33N 35°25' E 139°47'9 9.2
2016-May-27 15:33N 35°16' E 139°47'1110.5
2016-May-27 14:32N 35°05' E 139°44'62 9.7
2016-May-27 08:08N 34°34' E 138°38'  
2016-May-21 09:33N 35°12' E 139°46'1211.8
2016-May-21 08:33N 35°24' E 139°43'1111.2
2016-May-21 07:33N 35°29' E 139°55'1 0.8
2016-May-21 06:34N 35°29' E 139°56'2 2.3
2016-May-21 05:33N 35°27' E 139°58'1 0.6
2016-May-21 04:33N 35°27' E 139°58'0 0.0
2016-May-21 03:33N 35°27' E 139°58'0 0.0
2016-May-21 02:33N 35°27' E 139°58'0 0.4
2016-May-21 01:32N 35°27' E 139°58'8 8.3
2016-May-21 00:33N 35°26' E 139°48'9 9.1
2016-May-20 23:33N 35°17' E 139°46'9 9.3
2016-May-20 22:33N 35°08' E 139°45'6510.1
2016-May-20 16:07N 34°33' E 138°38'190 8.4
2016-May-19 17:33N 34°02' E 134°51'35 1.1
2016-May-18 09:16N 34°37' E 134°57'913.2
2016-May-18 08:33N 34°35' E 135°09'1212.0
2016-May-18 07:32N 34°33' E 135°23'2 2.0
2016-May-18 06:33N 34°32' E 135°25'0 0.0
2016-May-18 05:33N 34°32' E 135°25'0 0.0
2016-May-18 04:33N 34°32' E 135°25'0 0.0
2016-May-18 03:33N 34°32' E 135°25'0 0.0
2016-May-18 02:33N 34°32' E 135°25'1 0.5
2016-May-18 01:25N 34°33' E 135°25'6 6.9
2016-May-18 00:33N 34°32' E 135°18'1111.0
2016-May-17 23:33N 34°24' E 135°08'1110.7
2016-May-17 22:34N 34°15' E 135°03'1211.1
2016-May-17 21:28N 34°03' E 135°02'  

Dump ship's entire track history